Time;durP1;ratioP1;P1;durP2;ratioP2;P2;SDS_P1;SDS_P2;PMS_P1;PMS_P2;Temp;Humidity;BMP_temperature;BMP_pressure;BME280_temperature;BME280_humidity;BME280_pressure;Samples;Min_cycle;Max_cycle;Signal;HPM_P1;HPM_P2
2021/04/25 00:01:20;;;;;;;19.80;10.08;;;;;;;1.82;64.87;99841.03;1738333;82;21592;-72
2021/04/25 00:03:48;;;;;;;22.27;10.23;;;;;;;1.77;64.87;99841.20;1717930;82;21120;-72
2021/04/25 00:06:16;;;;;;;22.00;10.93;;;;;;;1.79;64.88;99838.94;1738877;82;21361;-72
2021/04/25 00:08:43;;;;;;;30.75;14.45;;;;;;;1.78;64.87;99833.78;1738968;82;21160;-72
2021/04/25 00:11:11;;;;;;;30.00;14.95;;;;;;;1.76;64.92;99836.42;1727328;81;21171;-72
2021/04/25 00:13:38;;;;;;;20.43;10.15;;;;;;;1.79;64.81;99838.07;1710996;82;21166;-72
2021/04/25 00:16:05;;;;;;;17.92;9.05;;;;;;;1.74;64.88;99838.67;1737299;82;21156;-71
2021/04/25 00:18:34;;;;;;;14.45;7.47;;;;;;;1.75;64.86;99841.69;1713808;82;21196;-72
2021/04/25 00:21:03;;;;;;;12.60;7.97;;;;;;;1.69;64.94;99833.63;1716543;82;21119;-71
2021/04/25 00:23:31;;;;;;;15.75;8.55;;;;;;;1.68;65.01;99834.52;1736067;82;21272;-71
2021/04/25 00:25:58;;;;;;;18.55;8.58;;;;;;;1.65;65.01;99821.60;1729103;82;21298;-71
2021/04/25 00:28:25;;;;;;;15.38;7.62;;;;;;;1.64;65.03;99825.11;1712594;82;21278;-71
2021/04/25 00:30:53;;;;;;;14.83;7.50;;;;;;;1.65;64.96;99820.30;1728376;82;21140;-71
2021/04/25 00:33:20;;;;;;;14.38;7.35;;;;;;;1.62;65.08;99823.86;1731411;82;21164;-71
2021/04/25 00:35:47;;;;;;;13.90;6.72;;;;;;;1.66;65.05;99823.28;1714318;82;21171;-71
2021/04/25 00:38:14;;;;;;;13.00;6.92;;;;;;;1.63;65.14;99823.39;1713012;82;21195;-72
2021/04/25 00:40:42;;;;;;;11.33;6.00;;;;;;;1.66;65.02;99819.38;1739089;82;21148;-71
2021/04/25 00:43:09;;;;;;;11.48;6.78;;;;;;;1.62;65.00;99817.77;1739317;82;21718;-70
2021/04/25 00:45:36;;;;;;;11.75;6.72;;;;;;;1.61;65.02;99819.54;1729818;82;21213;-74
2021/04/25 00:48:04;;;;;;;11.50;6.28;;;;;;;1.62;65.07;99817.34;1727322;82;21588;-73
2021/04/25 00:50:32;;;;;;;11.73;6.08;;;;;;;1.61;65.11;99810.84;1711454;82;21334;-71
2021/04/25 00:53:02;;;;;;;9.43;5.22;;;;;;;1.65;65.00;99811.17;1709715;84;21179;-71
2021/04/25 00:55:30;;;;;;;9.15;5.12;;;;;;;1.61;65.07;99808.23;1718285;82;21690;-72
2021/04/25 00:57:58;;;;;;;9.28;5.15;;;;;;;1.65;64.95;99808.56;1722555;82;21199;-72
2021/04/25 01:00:26;;;;;;;9.75;5.45;;;;;;;1.60;65.00;99802.19;1713182;82;21163;-72
2021/04/25 01:02:55;;;;;;;11.85;6.05;;;;;;;1.62;64.95;99802.13;1733495;82;21100;-72
2021/04/25 01:05:23;;;;;;;11.83;5.70;;;;;;;1.61;64.97;99797.81;1728941;82;21148;-72
2021/04/25 01:07:51;;;;;;;9.20;6.05;;;;;;;1.63;64.98;99794.72;1709526;84;21635;-72
2021/04/25 01:10:19;;;;;;;11.48;6.12;;;;;;;1.62;64.95;99795.18;1736538;82;21509;-72
2021/04/25 01:12:46;;;;;;;12.13;6.15;;;;;;;1.61;65.01;99791.30;1739011;82;21171;-72
2021/04/25 01:15:16;;;;;;;10.93;6.45;;;;;;;1.65;64.91;99795.53;1736176;82;21163;-71
2021/04/25 01:17:46;;;;;;;9.35;6.25;;;;;;;1.59;65.00;99789.21;1731663;82;21124;-71
2021/04/25 01:20:17;;;;;;;13.05;6.83;;;;;;;1.60;65.04;99785.24;1738945;82;21148;-71
2021/04/25 01:22:44;;;;;;;11.48;6.67;;;;;;;1.56;65.14;99784.08;1739052;81;21640;-72
2021/04/25 01:25:14;;;;;;;14.80;6.87;;;;;;;1.56;65.19;99781.04;1738188;82;21140;-71
2021/04/25 01:27:41;;;;;;;8.70;6.17;;;;;;;1.56;65.24;99778.86;1738785;82;21112;-70
2021/04/25 01:30:12;;;;;;;12.80;6.87;;;;;;;1.57;65.20;99776.66;1738314;82;21135;-71
2021/04/25 01:32:42;;;;;;;12.47;6.65;;;;;;;1.59;65.16;99775.71;1736837;82;21159;-71
2021/04/25 01:35:14;;;;;;;10.82;6.65;;;;;;;1.56;65.28;99771.05;1720071;82;21175;-71
2021/04/25 01:37:43;;;;;;;12.05;6.30;;;;;;;1.58;65.24;99762.27;1715506;82;21321;-71
2021/04/25 01:40:12;;;;;;;13.78;7.60;;;;;;;1.56;65.36;99765.83;1737787;82;21164;-71
2021/04/25 01:42:40;;;;;;;15.50;7.40;;;;;;;1.58;65.33;99761.44;1735069;81;21596;-71
2021/04/25 01:45:16;;;;;;;16.65;8.58;;;;;;;1.55;65.38;99758.48;1709824;84;21203;-71
2021/04/25 01:47:39;;;;;;;13.08;8.63;;;;;;;1.55;65.41;99759.78;1713432;82;21293;-71
2021/04/25 01:50:07;;;;;;;21.20;9.58;;;;;;;1.53;65.44;99763.34;1712685;82;22513;-71
2021/04/25 01:52:34;;;;;;;16.97;10.38;;;;;;;1.52;65.46;99753.34;1709973;84;21203;-71
2021/04/25 01:55:02;;;;;;;20.55;10.18;;;;;;;1.53;65.46;99749.84;1732484;82;21254;-71
2021/04/25 01:57:30;;;;;;;18.55;9.80;;;;;;;1.50;65.55;99753.00;1731345;82;21155;-71
2021/04/25 01:59:57;;;;;;;19.05;10.50;;;;;;;1.53;65.49;99752.91;1721944;82;21316;-72
2021/04/25 02:02:27;;;;;;;21.27;11.28;;;;;;;1.50;65.60;99759.52;1726214;82;21152;-71
2021/04/25 02:04:54;;;;;;;27.22;13.10;;;;;;;1.51;65.54;99753.41;1700204;82;21628;-71
2021/04/25 02:07:22;;;;;;;38.88;18.37;;;;;;;1.47;65.60;99754.82;1738419;82;21159;-71
2021/04/25 02:09:49;;;;;;;43.65;20.90;;;;;;;1.48;65.67;99745.23;1717771;82;21159;-71
2021/04/25 02:12:18;;;;;;;41.73;19.52;;;;;;;1.47;65.69;99750.04;1716740;82;21351;-72
2021/04/25 02:14:45;;;;;;;35.88;15.90;;;;;;;1.47;65.66;99745.70;1731420;82;21124;-71
2021/04/25 02:17:13;;;;;;;61.37;16.23;;;;;;;1.51;65.56;99748.19;1728050;82;21143;-71
2021/04/25 02:19:40;;;;;;;32.05;13.13;;;;;;;1.46;65.71;99743.15;1709787;83;21242;-72
2021/04/25 02:22:07;;;;;;;27.60;13.20;;;;;;;1.53;65.70;99737.27;1710532;82;21121;-71
2021/04/25 02:24:34;;;;;;;19.05;10.55;;;;;;;1.51;65.74;99738.64;1709764;84;21607;-71
2021/04/25 02:27:02;;;;;;;24.60;12.35;;;;;;;1.57;65.69;99755.38;1731464;82;21124;-71
2021/04/25 02:29:29;;;;;;;25.88;12.82;;;;;;;1.63;65.66;99755.61;1718134;82;21152;-71
2021/04/25 02:31:56;;;;;;;28.02;13.38;;;;;;;1.65;65.77;99748.60;1720604;82;21163;-72
2021/04/25 02:34:24;;;;;;;24.87;13.28;;;;;;;1.78;65.66;99756.39;1730091;82;21135;-71
2021/04/25 02:36:51;;;;;;;23.27;12.23;;;;;;;1.82;65.55;99745.84;1734830;82;21116;-71
2021/04/25 02:39:18;;;;;;;22.07;12.10;;;;;;;1.89;65.36;99739.53;1732816;82;21631;-71
2021/04/25 02:41:46;;;;;;;23.30;12.30;;;;;;;1.94;65.16;99745.44;1723382;82;21104;-71
2021/04/25 02:44:14;;;;;;;20.05;9.88;;;;;;;1.94;65.08;99745.44;1709941;84;21187;-71
2021/04/25 02:46:41;;;;;;;16.42;8.40;;;;;;;2.02;64.89;99743.42;1729790;82;21584;-71
2021/04/25 02:49:08;;;;;;;14.68;7.95;;;;;;;2.02;64.85;99737.34;1713055;82;21306;-71
2021/04/25 02:51:35;;;;;;;14.45;7.70;;;;;;;2.08;64.61;99739.27;1663279;85;21163;-71
2021/04/25 02:54:03;;;;;;;10.68;7.30;;;;;;;2.09;64.57;99735.77;1713915;82;21183;-72
2021/04/25 02:56:31;;;;;;;13.40;6.95;;;;;;;2.13;64.55;99736.04;1727374;82;21144;-72
2021/04/25 02:59:00;;;;;;;11.40;7.08;;;;;;;2.17;64.59;99735.95;1739169;82;21183;-72
2021/04/25 03:01:27;;;;;;;11.88;7.00;;;;;;;2.23;64.51;99731.82;1724823;81;21546;-72
2021/04/25 03:03:56;;;;;;;13.18;7.00;;;;;;;2.29;64.35;99728.53;1713048;83;21451;-71
2021/04/25 03:06:23;;;;;;;10.68;5.83;;;;;;;2.33;64.32;99723.18;1716710;82;21131;-71
2021/04/25 03:08:50;;;;;;;9.33;5.78;;;;;;;2.42;64.15;99722.40;1730204;82;21616;-72
2021/04/25 03:11:19;;;;;;;10.45;6.05;;;;;;;2.46;64.04;99723.98;1735401;82;21160;-72
2021/04/25 03:13:48;;;;;;;9.40;5.10;;;;;;;2.52;64.02;99723.35;1726628;82;21266;-73
2021/04/25 03:16:18;;;;;;;9.15;5.75;;;;;;;2.58;63.78;99724.43;1735360;82;21215;-73
2021/04/25 03:18:45;;;;;;;10.20;6.03;;;;;;;2.60;63.67;99736.98;1727112;82;21577;-73
2021/04/25 03:21:13;;;;;;;8.83;6.30;;;;;;;2.67;63.41;99721.46;1738541;81;21401;-73
2021/04/25 03:23:43;;;;;;;10.03;6.03;;;;;;;2.66;63.41;99711.95;1739330;82;21136;-73
2021/04/25 03:26:10;;;;;;;8.93;5.50;;;;;;;2.71;63.25;99722.20;1715785;82;21622;-73
2021/04/25 03:28:39;;;;;;;9.40;5.92;;;;;;;2.73;63.17;99722.54;1710160;82;21152;-72
2021/04/25 03:31:06;;;;;;;10.63;6.30;;;;;;;2.74;63.15;99726.86;1710497;82;21159;-73
2021/04/25 03:33:35;;;;;;;12.88;6.25;;;;;;;2.83;63.05;99727.43;1711638;82;21135;-72
2021/04/25 03:36:03;;;;;;;9.50;5.95;;;;;;;2.87;63.10;99736.84;1738763;82;21180;-73
2021/04/25 03:38:31;;;;;;;12.37;6.50;;;;;;;2.93;63.08;99732.22;1719929;82;21285;-73
2021/04/25 03:40:59;;;;;;;14.13;7.12;;;;;;;3.06;63.05;99729.97;1709643;84;21242;-73
2021/04/25 03:43:26;;;;;;;11.75;7.62;;;;;;;3.33;62.84;99727.16;1737415;82;21116;-73
2021/04/25 03:45:53;;;;;;;13.58;8.05;;;;;;;3.51;62.24;99719.02;1711536;82;21281;-73
2021/04/25 03:48:23;;;;;;;14.03;7.42;;;;;;;3.62;61.98;99719.89;1711941;82;21151;-73
2021/04/25 03:50:51;;;;;;;11.00;6.87;;;;;;;3.74;61.66;99716.73;1711613;82;21162;-73
2021/04/25 03:53:19;;;;;;;9.95;5.72;;;;;;;3.82;61.41;99722.94;1711119;82;21143;-73
2021/04/25 03:55:52;;;;;;;11.45;6.08;;;;;;;3.86;61.17;99722.36;1714476;82;21191;-72
2021/04/25 03:58:19;;;;;;;10.10;5.97;;;;;;;4.02;60.91;99723.40;1735566;82;21459;-73
2021/04/25 04:00:47;;;;;;;12.45;6.50;;;;;;;4.43;60.41;99719.86;1724969;82;21742;-73
2021/04/25 04:03:14;;;;;;;13.05;6.47;;;;;;;4.81;59.37;99716.38;1739190;82;21637;-73
2021/04/25 04:05:41;;;;;;;12.30;6.45;;;;;;;5.02;58.88;99715.36;1727283;82;21147;-73
2021/04/25 04:08:08;;;;;;;11.65;6.37;;;;;;;5.47;57.95;99709.25;1644420;86;21194;-73
2021/04/25 04:10:36;;;;;;;12.30;6.80;;;;;;;5.98;56.61;99708.02;1651327;85;21143;-73
2021/04/25 04:13:05;;;;;;;10.45;6.47;;;;;;;6.46;55.38;99711.21;1663990;85;21283;-73
2021/04/25 04:15:34;;;;;;;11.55;6.37;;;;;;;6.82;54.26;99708.84;1725311;82;21124;-74
2021/04/25 04:18:04;;;;;;;12.93;6.22;;;;;;;7.17;53.64;99698.11;1739402;82;21156;-73
2021/04/25 04:20:33;;;;;;;9.45;5.78;;;;;;;7.58;52.49;99702.75;1738189;81;21286;-73
2021/04/25 04:23:00;;;;;;;11.03;5.80;;;;;;;7.92;51.38;99698.61;1725480;82;21147;-74
2021/04/25 04:25:27;;;;;;;9.70;5.75;;;;;;;8.20;50.36;99699.92;1737083;82;21525;-73
2021/04/25 04:27:57;;;;;;;11.28;6.70;;;;;;;8.48;49.60;99694.78;1719207;82;21225;-73
2021/04/25 04:30:26;;;;;;;8.93;5.90;;;;;;;8.76;48.90;99697.84;1739268;82;21144;-74
2021/04/25 04:32:54;;;;;;;11.63;6.53;;;;;;;9.00;48.15;99702.02;1714646;82;21190;-73
2021/04/25 04:35:24;;;;;;;12.37;6.80;;;;;;;9.24;47.80;99696.06;1734738;82;21211;-73
2021/04/25 04:37:51;;;;;;;9.50;6.50;;;;;;;9.49;47.13;99695.30;1708616;84;21155;-73
2021/04/25 04:40:18;;;;;;;11.28;6.62;;;;;;;9.66;46.46;99698.12;1656929;86;21195;-74
2021/04/25 04:42:45;;;;;;;10.05;6.33;;;;;;;9.78;45.96;99699.56;1719562;82;21139;-73
2021/04/25 04:45:15;;;;;;;11.93;6.25;;;;;;;9.90;45.54;99692.12;1729316;82;21229;-73
2021/04/25 04:47:46;;;;;;;15.72;7.70;;;;;;;10.06;45.21;99695.03;1712160;82;21155;-74
2021/04/25 04:50:16;;;;;;;10.00;6.10;;;;;;;10.19;44.90;99701.14;1728080;82;21159;-74
2021/04/25 04:52:45;;;;;;;10.40;6.35;;;;;;;10.36;44.88;99709.73;1722876;82;22189;-74
2021/04/25 04:55:14;;;;;;;10.32;6.00;;;;;;;10.54;44.55;99699.19;1709902;84;21195;-74
2021/04/25 04:57:41;;;;;;;8.68;5.90;;;;;;;10.74;43.86;99698.23;1720295;82;21147;-74
2021/04/25 05:00:09;;;;;;;11.00;5.92;;;;;;;10.89;43.73;99698.45;1737850;82;21187;-71
2021/04/25 05:02:36;;;;;;;10.68;6.03;;;;;;;11.04;43.54;99699.63;1717708;82;21156;-72
2021/04/25 05:05:07;;;;;;;7.90;5.70;;;;;;;11.17;43.21;99703.05;1643720;86;22233;-73
2021/04/25 05:07:35;;;;;;;13.65;8.40;;;;;;;11.34;42.90;99703.61;1729690;82;21194;-74
2021/04/25 05:10:04;;;;;;;8.48;5.75;;;;;;;11.48;42.77;99692.36;1729533;82;22194;-73
2021/04/25 05:12:31;;;;;;;9.98;5.20;;;;;;;11.70;42.98;99692.52;1733810;82;21155;-73
2021/04/25 05:15:00;;;;;;;9.25;5.78;;;;;;;11.93;42.16;99692.09;1739028;82;21188;-73
2021/04/25 05:17:27;;;;;;;8.28;5.00;;;;;;;12.09;41.83;99692.62;1739208;82;21183;-73
2021/04/25 05:19:54;;;;;;;8.68;5.80;;;;;;;12.24;42.16;99677.83;1733057;82;21304;-74
2021/04/25 05:22:23;;;;;;;8.20;5.70;;;;;;;12.46;41.67;99684.92;1724820;81;21265;-73
2021/04/25 05:24:50;;;;;;;8.85;5.80;;;;;;;12.61;41.18;99691.66;1719531;82;21208;-73
2021/04/25 05:27:18;;;;;;;9.93;5.80;;;;;;;12.68;40.88;99686.70;1731957;82;21183;-76
2021/04/25 05:29:45;;;;;;;9.25;5.15;;;;;;;12.71;40.69;99693.57;1723062;82;21147;-73
2021/04/25 05:32:13;;;;;;;9.63;5.15;;;;;;;12.77;40.61;99700.58;1737467;82;21172;-74
2021/04/25 05:34:41;;;;;;;9.45;5.78;;;;;;;12.60;40.15;99704.56;1724407;82;21652;-74
2021/04/25 05:37:08;;;;;;;8.15;5.25;;;;;;;12.24;41.30;99703.84;1663837;86;21203;-74
2021/04/25 05:39:35;;;;;;;7.15;5.28;;;;;;;12.01;42.68;99707.43;1733724;82;21168;-73
2021/04/25 05:42:03;;;;;;;10.72;5.87;;;;;;;11.83;42.97;99711.84;1738656;82;21112;-73
2021/04/25 05:44:33;;;;;;;11.55;6.03;;;;;;;11.73;42.86;99707.72;1733521;82;21144;-74
2021/04/25 05:47:00;;;;;;;9.60;5.75;;;;;;;11.76;42.99;99710.61;1718589;81;21123;-73
2021/04/25 05:49:27;;;;;;;10.95;6.62;;;;;;;11.76;42.99;99710.61;1677430;84;21182;-73
2021/04/25 05:51:54;;;;;;;12.80;6.50;;;;;;;11.67;42.97;99710.83;1681548;84;21150;-73
2021/04/25 05:54:25;;;;;;;10.32;6.80;;;;;;;11.69;43.08;99711.56;1709872;82;21163;-73
2021/04/25 05:56:52;;;;;;;9.03;5.97;;;;;;;11.76;43.67;99709.28;1723693;82;21309;-73
2021/04/25 05:59:19;;;;;;;9.83;6.78;;;;;;;11.86;42.91;99706.30;1717346;82;21247;-74
2021/04/25 06:01:46;;;;;;;9.23;6.75;;;;;;;11.91;43.40;99708.61;1728695;82;21297;-75
2021/04/25 06:04:14;;;;;;;12.82;7.72;;;;;;;12.02;43.54;99700.70;1711174;82;21229;-75
2021/04/25 06:06:41;;;;;;;8.88;5.78;;;;;;;12.21;43.36;99704.56;1723890;82;21171;-74
2021/04/25 06:09:09;;;;;;;9.50;5.85;;;;;;;12.34;42.83;99713.73;1725751;82;21175;-74
2021/04/25 06:11:36;;;;;;;10.53;6.45;;;;;;;12.43;42.70;99703.75;1725564;82;21175;-74
2021/04/25 06:14:06;;;;;;;9.13;5.15;;;;;;;12.51;42.68;99705.80;1646106;86;21316;-74
2021/04/25 06:16:34;;;;;;;10.28;6.30;;;;;;;12.54;42.73;99702.39;1716987;82;21115;-74
2021/04/25 06:19:02;;;;;;;11.45;6.37;;;;;;;12.59;43.34;99705.52;1715048;82;21168;-74
2021/04/25 06:21:31;;;;;;;9.60;5.92;;;;;;;12.71;43.06;99702.85;1728916;82;21316;-73
2021/04/25 06:24:02;;;;;;;11.12;6.37;;;;;;;12.82;42.33;99700.19;1724120;82;21143;-74
2021/04/25 06:26:29;;;;;;;8.00;5.53;;;;;;;12.82;42.55;99705.49;1748807;82;21182;-73
2021/04/25 06:28:57;;;;;;;8.98;5.53;;;;;;;12.84;42.84;99702.25;1738027;82;21183;-73
2021/04/25 06:31:27;;;;;;;8.25;5.97;;;;;;;12.87;42.39;99709.95;1733833;82;21154;-73
2021/04/25 06:36:42;;;;;;;9.65;5.67;;;;;;;12.88;42.88;99703.67;1777656;79;24155;-72
2021/04/25 06:39:06;;;;;;;8.83;5.45;;;;;;;12.84;41.78;99698.27;1737438;82;21613;-72
2021/04/25 06:41:34;;;;;;;7.90;6.10;;;;;;;12.75;42.33;99695.03;1742951;82;21131;-72
2021/04/25 06:44:04;;;;;;;11.97;5.58;;;;;;;12.66;42.34;99693.95;1690321;85;21168;-74
2021/04/25 06:46:33;;;;;;;9.50;7.33;;;;;;;12.59;43.12;99690.09;1687861;85;21122;-74
2021/04/25 06:49:00;;;;;;;14.63;6.20;;;;;;;12.69;41.98;99684.41;1700160;84;21312;-74
2021/04/25 06:51:28;;;;;;;11.05;6.28;;;;;;;12.52;42.97;99687.09;1664633;84;21699;-74
2021/04/25 06:53:57;;;;;;;7.83;5.40;;;;;;;12.58;43.21;99684.42;1680899;83;21316;-75
2021/04/25 06:56:24;;;;;;;9.35;6.33;;;;;;;12.71;43.58;99684.28;1708873;84;21686;-75
2021/04/25 06:58:51;;;;;;;8.20;5.15;;;;;;;12.87;43.20;99694.02;1711548;84;21552;-74
2021/04/25 07:01:18;;;;;;;7.87;5.50;;;;;;;12.98;42.95;99686.53;1711435;84;21326;-73
2021/04/25 07:03:50;;;;;;;11.75;5.05;;;;;;;13.01;43.31;99696.05;1711468;84;21663;-74
2021/04/25 07:06:20;;;;;;;7.42;5.58;;;;;;;13.00;41.78;99703.66;1703802;84;21581;-73
2021/04/25 07:08:47;;;;;;;10.43;5.28;;;;;;;13.00;41.72;99699.67;1692600;84;21315;-73
2021/04/25 07:11:14;;;;;;;12.33;5.65;;;;;;;13.01;41.81;99687.59;1704061;84;21191;-72
2021/04/25 07:13:42;;;;;;;9.10;5.50;;;;;;;13.06;41.84;99703.16;1698883;84;21203;-73
2021/04/25 07:16:10;;;;;;;7.60;5.00;;;;;;;13.11;41.48;99706.28;1702859;84;21238;-72
2021/04/25 07:18:39;;;;;;;7.20;4.87;;;;;;;13.10;41.76;99705.92;1686639;83;21188;-73
2021/04/25 07:21:06;;;;;;;6.33;5.00;;;;;;;13.15;42.22;99710.86;1698165;84;21672;-73
2021/04/25 07:23:35;;;;;;;7.83;5.58;;;;;;;13.14;40.83;99700.70;1698347;83;21156;-74
2021/04/25 07:26:04;;;;;;;10.60;5.62;;;;;;;12.95;40.92;99710.65;1689930;84;21367;-76
2021/04/25 07:28:31;;;;;;;6.87;5.12;;;;;;;12.92;41.80;99706.94;1709781;83;21330;-73
2021/04/25 07:31:00;;;;;;;6.83;4.85;;;;;;;12.97;41.23;99700.77;1692598;84;21152;-74
2021/04/25 07:33:27;;;;;;;8.78;5.00;;;;;;;12.93;41.29;99704.15;1696345;84;21648;-74
2021/04/25 07:35:55;;;;;;;8.53;4.70;;;;;;;12.85;40.54;99692.46;1703943;83;21165;-72
2021/04/25 07:38:23;;;;;;;8.05;5.00;;;;;;;12.81;41.11;99691.86;1676712;84;21242;-72
2021/04/25 07:40:50;;;;;;;15.58;5.65;;;;;;;12.61;40.67;99703.59;1671375;84;21209;-72
2021/04/25 07:43:18;;;;;;;7.55;4.85;;;;;;;12.51;41.11;99694.69;1677836;84;21729;-72
2021/04/25 07:45:46;;;;;;;9.33;5.40;;;;;;;12.48;41.21;99700.25;1676736;84;21221;-72
2021/04/25 07:48:14;;;;;;;8.13;5.20;;;;;;;12.36;41.05;99698.55;1670330;85;21311;-72
2021/04/25 07:50:44;;;;;;;7.37;4.70;;;;;;;12.16;41.81;99702.30;1670824;84;21180;-73
2021/04/25 07:53:15;;;;;;;7.62;4.87;;;;;;;12.23;42.20;99702.16;1698870;83;21164;-75
2021/04/25 07:55:46;;;;;;;8.13;5.03;;;;;;;12.36;41.99;99700.70;1677934;84;21200;-77
2021/04/25 07:58:14;;;;;;;6.83;4.78;;;;;;;12.48;41.88;99705.55;1670143;86;21200;-77
2021/04/25 08:00:41;;;;;;;7.37;5.20;;;;;;;12.54;41.32;99699.73;1691697;84;21137;-77
2021/04/25 08:03:08;;;;;;;11.15;5.10;;;;;;;12.42;40.92;99696.25;1698322;84;21192;-77
2021/04/25 08:05:36;;;;;;;8.45;5.35;;;;;;;12.28;41.14;99696.02;1691679;84;21191;-76
2021/04/25 08:08:04;;;;;;;7.53;5.30;;;;;;;12.15;41.78;99695.30;1689287;84;21161;-77
2021/04/25 08:10:33;;;;;;;8.85;4.97;;;;;;;12.05;42.00;99688.53;1670295;86;21189;-76
2021/04/25 08:13:01;;;;;;;8.00;5.78;;;;;;;12.02;42.38;99687.92;1670185;86;21645;-76
2021/04/25 08:15:28;;;;;;;7.17;5.05;;;;;;;11.99;42.35;99682.87;1670227;86;22360;-76
2021/04/25 08:17:58;;;;;;;13.83;5.30;;;;;;;11.98;42.17;99685.98;1670206;86;21619;-76
2021/04/25 08:20:25;;;;;;;7.00;5.12;;;;;;;12.01;43.51;99676.48;1670334;86;21641;-76
2021/04/25 08:22:54;;;;;;;9.03;5.55;;;;;;;12.17;43.82;99677.44;1670316;86;21611;-76
2021/04/25 08:25:22;;;;;;;6.75;5.53;;;;;;;12.26;43.82;99674.09;1670548;86;21173;-76
2021/04/25 08:27:49;;;;;;;8.65;5.60;;;;;;;12.29;42.71;99675.16;1670348;86;21673;-76
2021/04/25 08:30:17;;;;;;;6.67;5.00;;;;;;;12.25;42.98;99664.45;1670346;85;21719;-75
2021/04/25 08:32:45;;;;;;;8.68;5.72;;;;;;;11.95;42.31;99627.44;1670168;86;21562;-76
2021/04/25 08:35:12;;;;;;;7.00;5.20;;;;;;;11.98;43.29;99659.97;1668710;85;21245;-76
2021/04/25 08:37:40;;;;;;;9.35;5.60;;;;;;;11.86;43.06;99659.92;1666742;86;21173;-76
2021/04/25 08:40:08;;;;;;;8.78;5.90;;;;;;;11.64;43.47;99669.52;1666904;86;21193;-76
2021/04/25 08:42:35;;;;;;;7.40;5.22;;;;;;;11.59;43.50;99667.70;1666670;86;21229;-76
2021/04/25 08:45:05;;;;;;;13.90;8.93;;;;;;;11.59;43.79;99659.75;1666932;86;21209;-77
2021/04/25 08:47:38;;;;;;;7.72;5.40;;;;;;;11.63;44.68;99658.55;1666952;86;21614;-76
2021/04/25 09:00:44;;;;;;;9.05;6.00;;;;;;;11.65;44.40;99649.19;1788056;79;23113;-75
2021/04/25 09:03:12;;;;;;;11.30;6.53;;;;;;;11.66;44.09;99652.67;1754052;81;21184;-74
2021/04/25 09:05:39;;;;;;;8.93;5.05;;;;;;;11.73;44.03;99652.08;1727139;80;21169;-75
2021/04/25 09:08:11;;;;;;;10.75;5.10;;;;;;;11.78;42.00;99657.03;1770326;80;21166;-75
2021/04/25 09:10:43;;;;;;;9.58;4.35;;;;;;;11.76;41.37;99648.35;1803394;79;21166;-75
2021/04/25 09:13:16;;;;;;;10.00;4.47;;;;;;;11.75;40.62;99647.98;1764832;81;21147;-75
2021/04/25 09:15:44;;;;;;;10.03;5.40;;;;;;;11.71;40.83;99661.11;1764493;81;21276;-76
2021/04/25 09:18:12;;;;;;;10.95;5.55;;;;;;;11.63;41.58;99651.93;1764583;81;21202;-74
2021/04/25 09:20:47;;;;;;;8.73;5.17;;;;;;;11.56;42.65;99650.73;1761304;81;21174;-75
2021/04/25 09:23:26;;;;;;;9.38;5.37;;;;;;;11.56;42.64;99648.08;1733285;81;21232;-75
2021/04/25 09:25:58;;;;;;;10.18;5.78;;;;;;;11.57;42.39;99646.27;1722657;83;21556;-75
2021/04/25 09:28:25;;;;;;;8.35;4.95;;;;;;;11.50;42.29;99648.55;1724847;82;21333;-76
2021/04/25 09:31:14;;;;;;;6.78;4.83;;;;;;;11.42;42.52;99645.16;1680108;84;21123;-76
2021/04/25 09:33:57;;;;;;;10.05;5.60;;;;;;;11.40;42.79;99640.94;1677249;85;21183;-75
2021/04/25 09:36:28;;;;;;;10.58;5.72;;;;;;;11.53;43.30;99641.67;1677684;84;22341;-74
2021/04/25 09:39:13;;;;;;;8.68;5.28;;;;;;;11.74;42.69;99632.58;1704696;84;21332;-75
2021/04/25 09:41:41;;;;;;;8.25;5.40;;;;;;;11.86;41.75;99637.41;1705341;84;21208;-75
2021/04/25 09:44:08;;;;;;;7.65;5.33;;;;;;;11.78;42.03;99635.34;1705678;84;21708;-74
2021/04/25 09:47:05;;;;;;;7.83;5.40;;;;;;;11.85;42.25;99638.85;1819237;79;22841;-73
2021/04/25 09:49:49;;;;;;;8.18;5.28;;;;;;;11.94;42.51;99636.34;1792387;78;21272;-74
2021/04/25 09:52:37;;;;;;;7.85;5.50;;;;;;;12.14;42.89;99628.66;1787492;80;21162;-74
2021/04/25 09:55:27;;;;;;;8.90;5.28;;;;;;;12.43;43.13;99628.16;1724817;83;21175;-75
2021/04/25 09:58:07;;;;;;;7.40;4.70;;;;;;;12.77;41.85;99632.05;1702214;84;21156;-75
2021/04/25 10:00:45;;;;;;;7.55;4.78;;;;;;;13.01;40.06;99614.59;1702535;84;21185;-75
2021/04/25 10:03:11;;;;;;;6.95;5.47;;;;;;;13.15;40.22;99621.91;1702447;84;21301;-75
2021/04/25 10:06:01;;;;;;;9.28;5.35;;;;;;;13.12;38.97;99617.70;1733904;83;21207;-75
2021/04/25 10:08:37;;;;;;;8.23;5.42;;;;;;;12.98;39.38;99611.34;1723224;81;21123;-75
2021/04/25 10:11:06;;;;;;;7.83;5.47;;;;;;;12.81;39.86;99621.53;1748536;81;21180;-75
2021/04/25 10:13:45;;;;;;;7.45;5.08;;;;;;;12.75;39.81;99608.80;1733024;83;21135;-76
2021/04/25 10:16:08;;;;;;;12.67;8.33;;;;;;;12.69;40.15;99614.59;1731723;83;21146;-76
2021/04/25 10:18:36;;;;;;;9.58;5.78;;;;;;;12.62;40.43;99616.42;1716027;83;21159;-75
2021/04/25 10:21:04;;;;;;;7.85;5.22;;;;;;;12.52;40.76;99615.48;1723350;83;21616;-76
2021/04/25 10:23:33;;;;;;;9.20;4.90;;;;;;;12.41;41.05;99620.80;1695400;84;21151;-75
2021/04/25 10:26:01;;;;;;;10.30;5.40;;;;;;;12.26;41.31;99618.41;1701005;83;21191;-75
2021/04/25 10:28:37;;;;;;;8.60;5.65;;;;;;;12.15;41.53;99620.20;1728129;83;21191;-75
2021/04/25 10:31:09;;;;;;;27.90;6.17;;;;;;;12.06;41.59;99620.45;1727763;83;21517;-75
2021/04/25 10:33:57;;;;;;;8.98;5.62;;;;;;;11.99;42.15;99620.59;1725628;83;21167;-75
2021/04/25 10:36:47;;;;;;;8.05;5.37;;;;;;;11.94;42.50;99615.60;1664974;84;21201;-75
2021/04/25 10:39:52;;;;;;;8.30;5.25;;;;;;;11.88;44.02;99622.70;1698739;84;21243;-74
2021/04/25 10:42:29;;;;;;;8.75;5.50;;;;;;;11.84;43.43;99622.59;1701943;84;21292;-74
2021/04/25 10:45:03;;;;;;;11.05;5.67;;;;;;;11.74;43.51;99629.93;1734042;83;21191;-75
2021/04/25 10:47:39;;;;;;;10.15;5.60;;;;;;;11.70;42.64;99621.00;1713642;84;21196;-74
2021/04/25 10:50:19;;;;;;;11.60;5.70;;;;;;;11.64;42.94;99616.54;1696015;84;21739;-74
2021/04/25 10:55:30;;;;;;;10.43;6.72;;;;;;;11.59;45.04;99618.70;1787973;79;22708;-74
2021/04/25 10:58:09;;;;;;;8.83;6.33;;;;;;;11.46;47.25;99620.61;1765051;80;21726;-73
2021/04/25 11:00:38;;;;;;;13.55;8.05;;;;;;;11.33;47.43;99629.11;1791763;80;21135;-74
2021/04/25 11:03:15;;;;;;;14.43;8.38;;;;;;;11.15;47.84;99622.91;1778995;80;21575;-76
2021/04/25 11:05:44;;;;;;;14.28;8.10;;;;;;;11.02;48.69;99626.12;1761365;81;21206;-75
2021/04/25 11:08:32;;;;;;;9.88;7.05;;;;;;;10.86;49.38;99620.64;1765081;80;21293;-75
2021/04/25 11:11:11;;;;;;;8.98;5.60;;;;;;;10.78;49.91;99619.87;1761274;81;21135;-75
2021/04/25 11:13:46;;;;;;;9.85;5.70;;;;;;;10.74;49.76;99630.78;1761392;81;21147;-74
2021/04/25 11:16:24;;;;;;;9.88;6.30;;;;;;;10.74;49.88;99626.81;1761354;81;21187;-74
2021/04/25 11:19:09;;;;;;;10.95;6.50;;;;;;;10.76;50.01;99624.42;1765145;80;21132;-75
2021/04/25 11:21:46;;;;;;;9.23;6.12;;;;;;;10.81;50.40;99623.61;1761366;81;21180;-75
2021/04/25 11:24:19;;;;;;;10.20;5.60;;;;;;;10.91;50.07;99623.78;1776344;80;21149;-75
2021/04/25 11:26:51;;;;;;;9.85;6.25;;;;;;;10.97;49.73;99622.02;1780490;80;21162;-75
2021/04/25 11:29:39;;;;;;;8.00;5.72;;;;;;;11.01;49.88;99622.64;1784178;80;21639;-75
2021/04/25 11:32:07;;;;;;;10.82;5.95;;;;;;;11.07;49.92;99625.30;1782883;80;21178;-76
2021/04/25 11:34:40;;;;;;;9.55;5.30;;;;;;;11.15;49.97;99627.73;1772142;80;21699;-76
2021/04/25 11:37:24;;;;;;;8.90;6.00;;;;;;;11.22;49.13;99618.84;1769691;80;21102;-75
2021/04/25 11:39:58;;;;;;;7.72;5.15;;;;;;;11.27;49.32;99625.97;1792645;80;21606;-75
2021/04/25 11:42:49;;;;;;;8.20;4.92;;;;;;;11.30;48.86;99619.13;1791137;80;21324;-74
2021/04/25 11:45:28;;;;;;;7.83;5.25;;;;;;;11.29;48.72;99618.77;1771002;80;21123;-75
2021/04/25 11:48:02;;;;;;;20.23;6.92;;;;;;;11.20;48.69;99617.27;1768041;80;21563;-74
2021/04/25 11:50:36;;;;;;;10.43;6.28;;;;;;;11.09;49.29;99614.95;1759648;81;21095;-74
2021/04/25 11:53:04;;;;;;;15.78;6.80;;;;;;;11.05;49.25;99618.80;1760374;80;21351;-75
2021/04/25 11:55:33;;;;;;;17.40;6.60;;;;;;;11.04;49.07;99628.18;1773667;80;21212;-75
2021/04/25 11:58:01;;;;;;;9.85;6.00;;;;;;;11.00;48.27;99613.00;1769463;81;21163;-77
2021/04/25 12:00:33;;;;;;;8.30;6.37;;;;;;;10.93;47.94;99632.47;1706803;83;21180;-76